»·PEaware :: ASA1946 KSFO-KLAS

ASA1946 :: KSFO-KLAS

FLIGHT INFORMATION

Flight Status: Arrived
Operator:
Alaska Airlines
More flights by this operator :: More flights under this callsign
Pilot: Sean T. (30125)
Aircraft: AIRBUS A319
(A319)
More flights by this aircraft type
Origin: KSFO San Francisco Intl
United States
Destination: KLAS McCarran Intl
United States
More flights between these airports :: More routes between these airports
Route: SSTIK4 NTELL BIH LIDAT J92 BTY SUNST4
File this flight plan on PilotEdge
Remarks:
Altitude:
(Current/Filed)
31,000ft
Speed:
(Current/Filed)
290kts
Departed: 18-Nov-20 10:22 AM
Arrived: 18-Nov-20 11:52 AM
Distance/Time
Traveled:
359nm/1:30
Distance/Time
To Go:
Arrived

Flight Plot

Page will automatically refresh every two minutes.

Flight plan parsing failed; only flown route is shown


Map Options




Map Legend


Flown Route
Filed Route
Departure Airport
Arrival Airport
Navaid (VOR, NDB)
Fix

Horizontal Profiles

Position Reports

Time Latitude Longitude Heading Altitude Ground
Speed
18-Nov-20 09:59 37.616811 -122.381662 16 32ft 0kts
18-Nov-20 10:00 37.616811 -122.381662 16 32ft 0kts
18-Nov-20 10:01 37.616811 -122.381662 16 32ft 0kts
18-Nov-20 10:02 37.616811 -122.381662 16 32ft 0kts
18-Nov-20 10:03 37.616811 -122.381662 16 32ft 0kts
18-Nov-20 10:04 37.616811 -122.381662 16 32ft 0kts
18-Nov-20 10:05 37.616811 -122.381662 16 32ft 0kts
18-Nov-20 10:06 37.616811 -122.381662 16 32ft 0kts
18-Nov-20 10:07 37.616811 -122.381662 16 32ft 0kts
18-Nov-20 10:08 37.616811 -122.381662 16 32ft 0kts
18-Nov-20 10:09 37.616811 -122.381662 16 32ft 0kts
18-Nov-20 10:10 37.616811 -122.381662 16 32ft 0kts
18-Nov-20 10:11 37.616811 -122.381662 16 32ft 0kts
18-Nov-20 10:12 37.616732 -122.381690 16 32ft 1kts
18-Nov-20 10:13 37.616391 -122.381865 25 32ft 1kts
18-Nov-20 10:14 37.616228 -122.382109 138 32ft 0kts
18-Nov-20 10:15 37.616192 -122.382100 162 32ft 1kts
18-Nov-20 10:16 37.615917 -122.381572 115 32ft 1kts
18-Nov-20 10:17 37.612511 -122.382350 208 32ft 26kts
18-Nov-20 10:18 37.609393 -122.383485 116 32ft 0kts
18-Nov-20 10:19 37.609087 -122.382723 117 30ft 12kts
18-Nov-20 10:20 37.609112 -122.382127 27 30ft 0kts
18-Nov-20 10:21 37.618647 -122.375829 27 24ft 145kts
18-Nov-20 10:22 37.648780 -122.362989 356 1515ft 177kts
18-Nov-20 10:23 37.686326 -122.366200 343 3033ft 219kts
18-Nov-20 10:24 37.703945 -122.400054 258 4700ft 222kts
18-Nov-20 10:26 37.677013 -122.429159 192 6413ft 242kts
18-Nov-20 10:27 37.634122 -122.439010 193 8428ft 255kts
18-Nov-20 10:28 37.584646 -122.451129 194 10947ft 253kts
18-Nov-20 10:29 37.537178 -122.462943 195 13170ft 251kts
18-Nov-20 10:30 37.488554 -122.465597 159 15307ft 263kts
18-Nov-20 10:31 37.454807 -122.414971 135 17164ft 276kts
18-Nov-20 10:32 37.424243 -122.361220 137 18528ft 281kts
18-Nov-20 10:33 37.402363 -122.297377 112 19814ft 305kts
18-Nov-20 10:34 37.387902 -122.221160 113 21056ft 331kts
18-Nov-20 10:35 37.371619 -122.138611 113 22559ft 357kts
18-Nov-20 10:36 37.354377 -122.052149 113 24028ft 378kts
18-Nov-20 10:37 37.336291 -121.961900 113 25481ft 396kts
18-Nov-20 10:38 37.316729 -121.864667 113 26987ft 409kts
18-Nov-20 10:39 37.296031 -121.762237 114 28530ft 417kts
18-Nov-20 10:39 37.278784 -121.677277 114 29653ft 423kts
18-Nov-20 10:41 37.254046 -121.557048 114 30479ft 453kts
18-Nov-20 10:42 37.232303 -121.451206 113 31103ft 478kts
18-Nov-20 10:43 37.208829 -121.337947 113 31109ft 519kts
18-Nov-20 10:43 37.187499 -121.234375 112 31115ft 546kts
18-Nov-20 10:45 37.156159 -121.082527 113 31121ft 556kts
18-Nov-20 10:46 37.128697 -120.951089 114 31120ft 555kts
18-Nov-20 10:46 37.104748 -120.837957 113 31116ft 554kts
18-Nov-20 10:48 37.069682 -120.673398 112 31114ft 552kts
18-Nov-20 10:48 37.044892 -120.557307 112 31114ft 549kts
18-Nov-20 10:49 37.015297 -120.419793 111 31112ft 546kts
18-Nov-20 10:50 36.986507 -120.286428 112 31117ft 542kts
18-Nov-20 10:51 36.958185 -120.156044 111 31128ft 538kts
18-Nov-20 10:52 36.931079 -120.032624 111 31133ft 539kts
18-Nov-20 10:53 36.912007 -119.910429 95 31130ft 551kts
18-Nov-20 10:54 36.931182 -119.782866 68 31144ft 558kts
18-Nov-20 10:55 36.971639 -119.662413 66 31148ft 558kts
18-Nov-20 10:56 37.011590 -119.540954 67 31152ft 566kts
18-Nov-20 10:57 37.054053 -119.407253 67 31154ft 575kts
18-Nov-20 10:58 37.098189 -119.267206 68 31160ft 581kts
18-Nov-20 10:59 37.141633 -119.128651 69 31161ft 586kts
18-Nov-20 11:00 37.183976 -118.992974 68 31158ft 584kts
18-Nov-20 11:01 37.229071 -118.848038 68 31141ft 570kts
18-Nov-20 11:02 37.277445 -118.691615 68 31121ft 563kts
18-Nov-20 11:03 37.327218 -118.529688 68 31082ft 564kts
18-Nov-20 11:04 37.371182 -118.368045 78 31043ft 563kts
18-Nov-20 11:05 37.387226 -118.195594 90 31026ft 559kts
18-Nov-20 11:06 37.395521 -118.009538 90 31021ft 559kts
18-Nov-20 11:07 37.404918 -117.820052 89 31018ft 559kts
18-Nov-20 11:08 37.413588 -117.640373 89 31020ft 559kts
18-Nov-20 11:09 37.422861 -117.439558 89 31024ft 559kts
18-Nov-20 11:10 37.394044 -117.263094 134 31048ft 516kts
18-Nov-20 11:11 37.291218 -117.157980 159 31060ft 480kts
18-Nov-20 11:12 37.181611 -117.067627 157 31063ft 479kts
18-Nov-20 11:13 37.073092 -116.976324 156 31062ft 477kts
18-Nov-20 11:14 36.963888 -116.884716 155 31062ft 479kts
18-Nov-20 11:15 36.857476 -116.795472 154 31063ft 481kts
18-Nov-20 11:16 36.757976 -116.687984 140 31064ft 496kts
18-Nov-20 11:17 36.669946 -116.562053 139 29944ft 475kts
18-Nov-20 11:18 36.583628 -116.439487 139 27753ft 473kts
18-Nov-20 11:19 36.504394 -116.327057 140 25282ft 421kts
18-Nov-20 11:20 36.432156 -116.224738 140 22830ft 378kts
18-Nov-20 11:21 36.366653 -116.132836 140 20080ft 361kts
18-Nov-20 11:22 36.304418 -116.045693 140 17817ft 347kts
18-Nov-20 11:23 36.244652 -115.962154 140 16504ft 330kts
18-Nov-20 11:24 36.191985 -115.875547 121 15983ft 343kts
18-Nov-20 11:25 36.158500 -115.769839 119 15982ft 345kts
18-Nov-20 11:26 36.125717 -115.667625 119 14607ft 326kts
18-Nov-20 11:27 36.094912 -115.572170 119 13112ft 306kts
18-Nov-20 11:28 36.066717 -115.485401 120 11857ft 296kts
18-Nov-20 11:29 36.039840 -115.402735 120 11009ft 284kts
18-Nov-20 11:30 36.026510 -115.318679 101 10536ft 294kts
18-Nov-20 11:31 36.020500 -115.229746 101 9440ft 289kts
18-Nov-20 11:32 36.014252 -115.139139 101 8461ft 273kts
18-Nov-20 11:33 36.008807 -115.055981 100 8040ft 248kts
18-Nov-20 11:34 36.004053 -114.975739 100 8039ft 244kts
18-Nov-20 11:35 35.998460 -114.883298 100 8038ft 243kts
18-Nov-20 11:36 35.993402 -114.801348 100 8038ft 244kts
18-Nov-20 11:37 35.988331 -114.723025 102 8019ft 198kts
18-Nov-20 11:38 35.983605 -114.654239 102 8038ft 198kts
18-Nov-20 11:39 36.009052 -114.599265 358 8031ft 222kts
18-Nov-20 11:40 36.044738 -114.644068 291 7386ft 193kts
18-Nov-20 11:41 36.061156 -114.699885 262 6653ft 177kts
18-Nov-20 11:42 36.071697 -114.754758 284 6708ft 186kts
18-Nov-20 11:43 36.077056 -114.808904 258 6757ft 167kts
18-Nov-20 11:44 36.073389 -114.857105 264 6274ft 160kts
18-Nov-20 11:45 36.074116 -114.907710 263 5533ft 161kts
18-Nov-20 11:46 36.074148 -114.957795 263 4702ft 154kts
18-Nov-20 11:47 36.073972 -115.006071 264 3969ft 154kts
18-Nov-20 11:48 36.073831 -115.049217 264 3300ft 148kts
18-Nov-20 11:49 36.073735 -115.089933 264 2672ft 145kts
18-Nov-20 11:50 36.073645 -115.128789 265 2075ft 144kts
18-Nov-20 11:51 36.074583 -115.145618 298 2103ft 10kts
18-Nov-20 11:52 36.074717 -115.145916 299 2104ft 0kts
18-Nov-20 11:53 36.074800 -115.146092 301 2104ft 10kts
18-Nov-20 11:54 36.077277 -115.146553 357 2104ft 0kts
18-Nov-20 11:55 36.077278 -115.146553 357 2104ft 0kts
18-Nov-20 11:56 36.078467 -115.146092 91 2099ft 17kts
18-Nov-20 11:57 36.080595 -115.142223 22 2082ft 23kts
18-Nov-20 11:58 36.080959 -115.140157 134 2074ft 0kts

Navigation Log

Ident Type
Flight plan parsing failed, navigation log unavailable